Mississippi Star — 9HA2441 — position and weather

sailwx.info

Track history (hours):
 
Tides and Currents Weather Stations Pressure Air Temp Water Temp Dewpoint Dewpoint Depression Visibility Wind Speed Wind Dir Waves Ship Positions

Mississippi Star

Last reported at 2017-Mar-24 13:31 UTC. Time now 2017-Mar-24 13:49 UTC.
Position N 59°20' E 010°32'.

Length 128 m; draft 7.6 m.

Type: Ship. MMSI: 248621000.

Date/timePositionNaut miles runAvg speedWind from/ knotsBaromVisibWave heightAir tempDewpointWater temp
2017-Mar-24 13:31N 59°20' E 010°32'0 0.1
2017-Mar-24 12:31N 59°20' E 010°32'0 0.1
2017-Mar-24 11:31N 59°20' E 010°32'0 0.0
2017-Mar-24 10:31N 59°20' E 010°32'0 0.1
2017-Mar-24 09:31N 59°20' E 010°32'0 0.0
2017-Mar-24 08:31N 59°20' E 010°32'0 0.0
2017-Mar-24 07:31N 59°20' E 010°32'0 0.0
2017-Mar-24 06:31N 59°20' E 010°32'0 0.0
2017-Mar-24 05:31N 59°20' E 010°32'0 0.0
2017-Mar-24 04:31N 59°20' E 010°32'3 3.0
2017-Mar-24 03:33N 59°17' E 010°34'1211.9
2017-Mar-24 02:33N 59°05' E 010°36'1110.7
2017-Mar-24 01:33N 58°55' E 010°31'1212.2
2017-Mar-24 00:33N 58°43' E 010°24'1211.8
2017-Mar-23 23:33N 58°32' E 010°17'1211.7
2017-Mar-23 22:33N 58°23' E 010°04'1212.2
2017-Mar-23 21:33N 58°14' E 009°48'1312.7
2017-Mar-23 20:31N 58°04' E 009°32'1212.7
2017-Mar-23 19:33N 57°55' E 009°16'1212.3
2017-Mar-23 18:33N 57°45' E 009°01'31311.5
2017-Mar-22 15:19N 53°12' E 004°31'912.1
2017-Mar-22 14:33N 53°04' E 004°25'1312.5
2017-Mar-22 13:33N 52°52' E 004°16'1212.4
2017-Mar-22 12:33N 52°42' E 004°05'1312.6
2017-Mar-22 11:33N 52°31' E 003°55'1313.0
2017-Mar-22 10:33N 52°18' E 003°52'1312.9
2017-Mar-22 09:33N 52°05' E 003°54'1010.1
2017-Mar-22 08:34N 51°59' E 004°07'9 8.5
2017-Mar-22 07:33N 51°53' E 004°18'0 0.4
2017-Mar-22 06:29N 51°53' E 004°17'0 0.0
2017-Mar-22 05:26N 51°53' E 004°17'0 0.0
2017-Mar-22 04:29N 51°53' E 004°17'0 0.0
2017-Mar-22 03:32N 51°53' E 004°17'0 0.0
2017-Mar-22 02:32N 51°53' E 004°17'0 0.0
2017-Mar-22 01:29N 51°53' E 004°17'0 0.0
2017-Mar-22 00:29N 51°53' E 004°17'0 0.0
2017-Mar-21 23:23N 51°53' E 004°17'0 0.0
2017-Mar-21 22:11N 51°53' E 004°17'0 0.0
2017-Mar-21 21:26N 51°53' E 004°17'0 0.0
2017-Mar-21 20:17N 51°53' E 004°17'0 0.0
2017-Mar-21 19:32N 51°53' E 004°17'0 0.0
2017-Mar-21 18:29N 51°53' E 004°17'0 0.0
2017-Mar-21 17:17N 51°53' E 004°17'0 0.0
2017-Mar-21 16:29N 51°53' E 004°17'0 0.0
2017-Mar-21 15:17N 51°53' E 004°17'0 0.0
2017-Mar-21 14:33N 51°53' E 004°17'1 0.6
2017-Mar-21 13:33N 51°54' E 004°17'9 8.7
2017-Mar-21 12:33N 51°59' E 004°05'2 2.0
2017-Mar-21 11:31N 51°57' E 004°06'0 0.0
2017-Mar-21 10:31N 51°57' E 004°06'0 0.0
2017-Mar-21 09:32N 51°57' E 004°06'0 0.0
2017-Mar-21 08:31N 51°57' E 004°06'0 0.0
2017-Mar-21 07:31N 51°57' E 004°06'0 0.0
2017-Mar-21 06:32N 51°57' E 004°06'0 0.0
2017-Mar-21 05:31N 51°57' E 004°06'0 0.0
2017-Mar-21 04:32N 51°57' E 004°06'0 0.0
2017-Mar-21 03:31N 51°57' E 004°06'0 0.0
2017-Mar-21 02:32N 51°57' E 004°06'0 0.0
2017-Mar-21 01:31N 51°57' E 004°06'0 0.0
2017-Mar-21 00:31N 51°57' E 004°06'0 0.0
2017-Mar-20 23:25N 51°57' E 004°06'0 0.0
2017-Mar-20 22:32N 51°57' E 004°06'0 0.0
2017-Mar-20 21:31N 51°57' E 004°06'0 0.0
2017-Mar-20 20:32N 51°57' E 004°06'0 0.0
2017-Mar-20 19:32N 51°57' E 004°06'0 0.0
2017-Mar-20 18:32N 51°57' E 004°06'0 0.0
2017-Mar-20 17:31N 51°57' E 004°06'0 0.0
2017-Mar-20 16:32N 51°57' E 004°06'0 0.0
2017-Mar-20 15:33N 51°57' E 004°06'4 3.9
2017-Mar-20 14:33N 51°60' E 004°01'1010.4
2017-Mar-20 13:33N 52°05' E 003°47'6 0.3
2017-Mar-19 15:19N 52°10' E 003°41'0 0.0
2017-Mar-19 10:22N 52°10' E 003°41'0 0.0
2017-Mar-19 09:33N 52°10' E 003°41'0 0.0
2017-Mar-19 08:33N 52°10' E 003°41'0 0.0
2017-Mar-19 01:33N 52°10' E 003°41'0 0.0
2017-Mar-18 20:06N 52°10' E 003°41'0 0.0
2017-Mar-18 13:25N 52°10' E 003°41'0 0.0
2017-Mar-18 12:16N 52°10' E 003°41'0 0.1
2017-Mar-18 11:31N 52°10' E 003°41'0 0.0
2017-Mar-17 17:06N 52°10' E 003°41'4 1.4
2017-Mar-17 14:32N 52°12' E 003°45'10 9.9
2017-Mar-17 13:33N 52°22' E 003°49'10 9.8
2017-Mar-17 12:33N 52°31' E 003°54'1110.8
2017-Mar-17 11:33N 52°31' E 004°11'9 9.2
2017-Mar-17 10:33N 52°28' E 004°26'6 6.4
2017-Mar-17 09:33N 52°28' E 004°36'2 1.7
2017-Mar-17 08:33N 52°28' E 004°39'5 5.3
2017-Mar-17 07:31N 52°25' E 004°46'0 0.0
2017-Mar-17 06:31N 52°25' E 004°46'0 0.0
2017-Mar-17 05:28N 52°25' E 004°46'0 0.0
2017-Mar-17 04:31N 52°25' E 004°46'0 0.0
2017-Mar-17 03:28N 52°25' E 004°46'0 0.0
2017-Mar-17 02:31N 52°25' E 004°46'0 0.0
2017-Mar-16 07:33N 52°25' E 004°46'6 6.0
2017-Mar-16 06:33N 52°28' E 004°38'2 2.3
2017-Mar-16 05:33N 52°28' E 004°35'1110.6
2017-Mar-16 04:33N 52°28' E 004°17'9 9.2
2017-Mar-16 03:33N 52°27' E 004°02'1 0.9
2017-Mar-16 02:32N 52°26' E 004°02'0 0.1
2017-Mar-16 01:29N 52°26' E 004°02'0 0.0
2017-Mar-16 00:32N 52°26' E 004°02'0 0.0
2017-Mar-15 23:20N 52°26' E 004°02'0 0.0
2017-Mar-15 22:32N 52°26' E 004°02'0 0.0
2017-Mar-15 21:26N 52°26' E 004°02'0 0.1
2017-Mar-15 20:32N 52°26' E 004°02'0 0.1
2017-Mar-15 19:26N 52°26' E 004°02'0 0.0
2017-Mar-15 18:29N 52°26' E 004°02'0 0.0
2017-Mar-15 17:32N 52°26' E 004°02'0 0.0
2017-Mar-15 16:32N 52°26' E 004°02'0 0.0
2017-Mar-15 15:32N 52°26' E 004°02'0 0.1
2017-Mar-15 14:32N 52°26' E 004°02'0 0.0
2017-Mar-15 13:32N 52°26' E 004°02'0 0.0
2017-Mar-15 12:32N 52°26' E 004°02'0 0.0
2017-Mar-15 11:32N 52°26' E 004°02'0 0.0
2017-Mar-15 10:32N 52°26' E 004°02'0 0.0
2017-Mar-15 09:32N 52°26' E 004°02'0 0.0
2017-Mar-15 08:32N 52°26' E 004°02'0 0.1
2017-Mar-15 07:32N 52°26' E 004°02'0 0.0
2017-Mar-15 06:32N 52°26' E 004°02'0 0.0
2017-Mar-15 05:32N 52°26' E 004°02'0 0.0
2017-Mar-15 04:32N 52°26' E 004°02'0 0.0
2017-Mar-15 03:32N 52°26' E 004°02'0 0.0
2017-Mar-15 02:29N 52°26' E 004°02'0 0.1
2017-Mar-15 01:32N 52°26' E 004°02'0 0.0
2017-Mar-15 00:32N 52°26' E 004°02'0 0.0
2017-Mar-14 23:32N 52°26' E 004°02'0 0.0
2017-Mar-14 22:32N 52°26' E 004°02'0 0.0
2017-Mar-14 21:32N 52°26' E 004°02'0 0.1
2017-Mar-14 20:32N 52°26' E 004°02'0 0.1
2017-Mar-14 19:32N 52°26' E 004°02'0 0.0
2017-Mar-14 18:32N 52°26' E 004°02'0 0.0
2017-Mar-14 17:32N 52°26' E 004°02'0 0.0
2017-Mar-14 16:32N 52°26' E 004°02'0 0.0
2017-Mar-14 15:32N 52°26' E 004°02'0 0.0
2017-Mar-14 14:20N 52°26' E 004°02'0 0.0
2017-Mar-14 13:32N 52°26' E 004°02'  
Track history (hours):
 
Tides and Currents Weather Stations Pressure Air Temp Water Temp Dewpoint Dewpoint Depression Visibility Wind Speed Wind Dir Waves Ship Positions

Mississippi Star

Last reported at 2017-Mar-24 13:31 UTC. Time now 2017-Mar-24 13:49 UTC.
Position N 59°20' E 010°32'.

Length 128 m; draft 7.6 m.

Type: Ship. MMSI: 248621000.

Date/timePositionNaut miles runAvg speedWind from/ knotsBaromVisibWave heightAir tempDewpointWater temp
2017-Mar-24 13:31N 59°20' E 010°32'0 0.1
2017-Mar-24 12:31N 59°20' E 010°32'0 0.1
2017-Mar-24 11:31N 59°20' E 010°32'0 0.0
2017-Mar-24 10:31N 59°20' E 010°32'0 0.1
2017-Mar-24 09:31N 59°20' E 010°32'0 0.0
2017-Mar-24 08:31N 59°20' E 010°32'0 0.0
2017-Mar-24 07:31N 59°20' E 010°32'0 0.0
2017-Mar-24 06:31N 59°20' E 010°32'0 0.0
2017-Mar-24 05:31N 59°20' E 010°32'0 0.0
2017-Mar-24 04:31N 59°20' E 010°32'3 3.0
2017-Mar-24 03:33N 59°17' E 010°34'1211.9
2017-Mar-24 02:33N 59°05' E 010°36'1110.7
2017-Mar-24 01:33N 58°55' E 010°31'1212.2
2017-Mar-24 00:33N 58°43' E 010°24'1211.8
2017-Mar-23 23:33N 58°32' E 010°17'1211.7
2017-Mar-23 22:33N 58°23' E 010°04'1212.2
2017-Mar-23 21:33N 58°14' E 009°48'1312.7
2017-Mar-23 20:31N 58°04' E 009°32'1212.7
2017-Mar-23 19:33N 57°55' E 009°16'1212.3
2017-Mar-23 18:33N 57°45' E 009°01'31311.5
2017-Mar-22 15:19N 53°12' E 004°31'912.1
2017-Mar-22 14:33N 53°04' E 004°25'1312.5
2017-Mar-22 13:33N 52°52' E 004°16'1212.4
2017-Mar-22 12:33N 52°42' E 004°05'1312.6
2017-Mar-22 11:33N 52°31' E 003°55'1313.0
2017-Mar-22 10:33N 52°18' E 003°52'1312.9
2017-Mar-22 09:33N 52°05' E 003°54'1010.1
2017-Mar-22 08:34N 51°59' E 004°07'9 8.5
2017-Mar-22 07:33N 51°53' E 004°18'0 0.4
2017-Mar-22 06:29N 51°53' E 004°17'0 0.0
2017-Mar-22 05:26N 51°53' E 004°17'0 0.0
2017-Mar-22 04:29N 51°53' E 004°17'0 0.0
2017-Mar-22 03:32N 51°53' E 004°17'0 0.0
2017-Mar-22 02:32N 51°53' E 004°17'0 0.0
2017-Mar-22 01:29N 51°53' E 004°17'0 0.0
2017-Mar-22 00:29N 51°53' E 004°17'0 0.0
2017-Mar-21 23:23N 51°53' E 004°17'0 0.0
2017-Mar-21 22:11N 51°53' E 004°17'0 0.0
2017-Mar-21 21:26N 51°53' E 004°17'0 0.0
2017-Mar-21 20:17N 51°53' E 004°17'0 0.0
2017-Mar-21 19:32N 51°53' E 004°17'0 0.0
2017-Mar-21 18:29N 51°53' E 004°17'0 0.0
2017-Mar-21 17:17N 51°53' E 004°17'0 0.0
2017-Mar-21 16:29N 51°53' E 004°17'0 0.0
2017-Mar-21 15:17N 51°53' E 004°17'0 0.0
2017-Mar-21 14:33N 51°53' E 004°17'1 0.6
2017-Mar-21 13:33N 51°54' E 004°17'9 8.7
2017-Mar-21 12:33N 51°59' E 004°05'2 2.0
2017-Mar-21 11:31N 51°57' E 004°06'0 0.0
2017-Mar-21 10:31N 51°57' E 004°06'0 0.0
2017-Mar-21 09:32N 51°57' E 004°06'0 0.0
2017-Mar-21 08:31N 51°57' E 004°06'0 0.0
2017-Mar-21 07:31N 51°57' E 004°06'0 0.0
2017-Mar-21 06:32N 51°57' E 004°06'0 0.0
2017-Mar-21 05:31N 51°57' E 004°06'0 0.0
2017-Mar-21 04:32N 51°57' E 004°06'0 0.0
2017-Mar-21 03:31N 51°57' E 004°06'0 0.0
2017-Mar-21 02:32N 51°57' E 004°06'0 0.0
2017-Mar-21 01:31N 51°57' E 004°06'0 0.0
2017-Mar-21 00:31N 51°57' E 004°06'0 0.0
2017-Mar-20 23:25N 51°57' E 004°06'0 0.0
2017-Mar-20 22:32N 51°57' E 004°06'0 0.0
2017-Mar-20 21:31N 51°57' E 004°06'0 0.0
2017-Mar-20 20:32N 51°57' E 004°06'0 0.0
2017-Mar-20 19:32N 51°57' E 004°06'0 0.0
2017-Mar-20 18:32N 51°57' E 004°06'0 0.0
2017-Mar-20 17:31N 51°57' E 004°06'0 0.0
2017-Mar-20 16:32N 51°57' E 004°06'0 0.0
2017-Mar-20 15:33N 51°57' E 004°06'4 3.9
2017-Mar-20 14:33N 51°60' E 004°01'1010.4
2017-Mar-20 13:33N 52°05' E 003°47'6 0.3
2017-Mar-19 15:19N 52°10' E 003°41'0 0.0
2017-Mar-19 10:22N 52°10' E 003°41'0 0.0
2017-Mar-19 09:33N 52°10' E 003°41'0 0.0
2017-Mar-19 08:33N 52°10' E 003°41'0 0.0
2017-Mar-19 01:33N 52°10' E 003°41'0 0.0
2017-Mar-18 20:06N 52°10' E 003°41'0 0.0
2017-Mar-18 13:25N 52°10' E 003°41'0 0.0
2017-Mar-18 12:16N 52°10' E 003°41'0 0.1
2017-Mar-18 11:31N 52°10' E 003°41'0 0.0
2017-Mar-17 17:06N 52°10' E 003°41'4 1.4
2017-Mar-17 14:32N 52°12' E 003°45'10 9.9
2017-Mar-17 13:33N 52°22' E 003°49'10 9.8
2017-Mar-17 12:33N 52°31' E 003°54'1110.8
2017-Mar-17 11:33N 52°31' E 004°11'9 9.2
2017-Mar-17 10:33N 52°28' E 004°26'6 6.4
2017-Mar-17 09:33N 52°28' E 004°36'2 1.7
2017-Mar-17 08:33N 52°28' E 004°39'5 5.3
2017-Mar-17 07:31N 52°25' E 004°46'0 0.0
2017-Mar-17 06:31N 52°25' E 004°46'0 0.0
2017-Mar-17 05:28N 52°25' E 004°46'0 0.0
2017-Mar-17 04:31N 52°25' E 004°46'0 0.0
2017-Mar-17 03:28N 52°25' E 004°46'0 0.0
2017-Mar-17 02:31N 52°25' E 004°46'0 0.0
2017-Mar-16 07:33N 52°25' E 004°46'6 6.0
2017-Mar-16 06:33N 52°28' E 004°38'2 2.3
2017-Mar-16 05:33N 52°28' E 004°35'1110.6
2017-Mar-16 04:33N 52°28' E 004°17'9 9.2
2017-Mar-16 03:33N 52°27' E 004°02'1 0.9
2017-Mar-16 02:32N 52°26' E 004°02'0 0.1
2017-Mar-16 01:29N 52°26' E 004°02'0 0.0
2017-Mar-16 00:32N 52°26' E 004°02'0 0.0
2017-Mar-15 23:20N 52°26' E 004°02'0 0.0
2017-Mar-15 22:32N 52°26' E 004°02'0 0.0
2017-Mar-15 21:26N 52°26' E 004°02'0 0.1
2017-Mar-15 20:32N 52°26' E 004°02'0 0.1
2017-Mar-15 19:26N 52°26' E 004°02'0 0.0
2017-Mar-15 18:29N 52°26' E 004°02'0 0.0
2017-Mar-15 17:32N 52°26' E 004°02'0 0.0
2017-Mar-15 16:32N 52°26' E 004°02'0 0.0
2017-Mar-15 15:32N 52°26' E 004°02'0 0.1
2017-Mar-15 14:32N 52°26' E 004°02'0 0.0
2017-Mar-15 13:32N 52°26' E 004°02'0 0.0
2017-Mar-15 12:32N 52°26' E 004°02'0 0.0
2017-Mar-15 11:32N 52°26' E 004°02'0 0.0
2017-Mar-15 10:32N 52°26' E 004°02'0 0.0
2017-Mar-15 09:32N 52°26' E 004°02'0 0.0
2017-Mar-15 08:32N 52°26' E 004°02'0 0.1
2017-Mar-15 07:32N 52°26' E 004°02'0 0.0
2017-Mar-15 06:32N 52°26' E 004°02'0 0.0
2017-Mar-15 05:32N 52°26' E 004°02'0 0.0
2017-Mar-15 04:32N 52°26' E 004°02'0 0.0
2017-Mar-15 03:32N 52°26' E 004°02'0 0.0
2017-Mar-15 02:29N 52°26' E 004°02'0 0.1
2017-Mar-15 01:32N 52°26' E 004°02'0 0.0
2017-Mar-15 00:32N 52°26' E 004°02'0 0.0
2017-Mar-14 23:32N 52°26' E 004°02'0 0.0
2017-Mar-14 22:32N 52°26' E 004°02'0 0.0
2017-Mar-14 21:32N 52°26' E 004°02'0 0.1
2017-Mar-14 20:32N 52°26' E 004°02'0 0.1
2017-Mar-14 19:32N 52°26' E 004°02'0 0.0
2017-Mar-14 18:32N 52°26' E 004°02'0 0.0
2017-Mar-14 17:32N 52°26' E 004°02'0 0.0
2017-Mar-14 16:32N 52°26' E 004°02'0 0.0
2017-Mar-14 15:32N 52°26' E 004°02'0 0.0
2017-Mar-14 14:20N 52°26' E 004°02'0 0.0
2017-Mar-14 13:32N 52°26' E 004°02'  

Dump ship's entire track history